sensor_id;sensor_type;location;lat;lon;timestamp;pressure;altitude;pressure_sealevel;temperature;humidity
13836;BME280;6988;52.614;13.500;2024-03-29T00:03:07;54526.75;;;-143.77;60.86
13836;BME280;6988;52.614;13.500;2024-03-29T00:07:58;54514.44;;;-143.77;61.28
13836;BME280;6988;52.614;13.500;2024-03-29T00:12:50;54504.19;;;-143.77;62.01
13836;BME280;6988;52.614;13.500;2024-03-29T00:17:41;54514.44;;;-143.77;61.84
13836;BME280;6988;52.614;13.500;2024-03-29T00:22:33;54545.22;;;-143.77;62.67
13836;BME280;6988;52.614;13.500;2024-03-29T00:27:24;54524.69;;;-143.77;64.24
13836;BME280;6988;52.614;13.500;2024-03-29T00:32:15;54516.50;;;-143.77;67.65
13836;BME280;6988;52.614;13.500;2024-03-29T00:37:06;54555.47;;;-143.77;68.70
13836;BME280;6988;52.614;13.500;2024-03-29T00:41:58;54520.59;;;-143.77;70.52
13836;BME280;6988;52.614;13.500;2024-03-29T00:46:49;54543.16;;;-143.77;71.26
13836;BME280;6988;52.614;13.500;2024-03-29T00:51:40;54532.91;;;-143.77;71.23
13836;BME280;6988;52.614;13.500;2024-03-29T00:56:31;54551.38;;;-143.77;70.78
13836;BME280;6988;52.614;13.500;2024-03-29T01:01:23;54545.22;;;-143.77;70.25
13836;BME280;6988;52.614;13.500;2024-03-29T01:06:14;54561.63;;;-143.77;68.92
13836;BME280;6988;52.614;13.500;2024-03-29T01:11:05;54549.31;;;-143.77;68.39
13836;BME280;6988;52.614;13.500;2024-03-29T01:15:56;54553.41;;;-143.77;68.01
13836;BME280;6988;52.614;13.500;2024-03-29T01:20:49;54557.53;;;-143.77;68.55
13836;BME280;6988;52.614;13.500;2024-03-29T01:25:40;54561.63;;;-143.77;69.11
13836;BME280;6988;52.614;13.500;2024-03-29T01:30:30;54580.09;;;-143.77;69.66
13836;BME280;6988;52.614;13.500;2024-03-29T01:35:21;54584.19;;;-143.77;70.06
13836;BME280;6988;52.614;13.500;2024-03-29T01:40:14;54561.63;;;-143.77;70.64
13836;BME280;6988;52.614;13.500;2024-03-29T01:45:06;54606.78;;;-143.77;70.71
13836;BME280;6988;52.614;13.500;2024-03-29T01:49:59;54614.97;;;-143.77;71.18
13836;BME280;6988;52.614;13.500;2024-03-29T01:54:51;54578.03;;;-143.77;71.32
13836;BME280;6988;52.614;13.500;2024-03-29T01:59:46;54573.94;;;-143.77;71.98
13836;BME280;6988;52.614;13.500;2024-03-29T02:04:38;54590.34;;;-143.77;71.90
13836;BME280;6988;52.614;13.500;2024-03-29T02:09:30;54569.84;;;-143.77;72.30
13836;BME280;6988;52.614;13.500;2024-03-29T02:14:22;54614.97;;;-143.77;72.46
13836;BME280;6988;52.614;13.500;2024-03-29T02:19:16;54619.09;;;-143.77;72.70
13836;BME280;6988;52.614;13.500;2024-03-29T02:24:12;54586.25;;;-143.77;72.69
13836;BME280;6988;52.614;13.500;2024-03-29T02:29:07;54602.66;;;-143.77;72.95
13836;BME280;6988;52.614;13.500;2024-03-29T02:33:59;54614.97;;;-143.77;72.85
13836;BME280;6988;52.614;13.500;2024-03-29T02:38:50;54637.56;;;-143.77;73.18
13836;BME280;6988;52.614;13.500;2024-03-29T02:43:44;54598.56;;;-143.77;73.14
13836;BME280;6988;52.614;13.500;2024-03-29T02:48:36;54621.13;;;-143.77;73.49
13836;BME280;6988;52.614;13.500;2024-03-29T02:53:28;54602.66;;;-143.77;73.40
13836;BME280;6988;52.614;13.500;2024-03-29T02:58:19;54631.41;;;-143.77;73.49
13836;BME280;6988;52.614;13.500;2024-03-29T03:03:15;54629.34;;;-143.77;72.87
13836;BME280;6988;52.614;13.500;2024-03-29T03:08:07;54660.13;;;-143.77;73.47
13836;BME280;6988;52.614;13.500;2024-03-29T03:13:18;54631.41;;;-143.77;73.22
13836;BME280;6988;52.614;13.500;2024-03-29T03:18:10;54606.78;;;-143.77;73.29
13836;BME280;6988;52.614;13.500;2024-03-29T03:23:03;54614.97;;;-143.77;73.23
13836;BME280;6988;52.614;13.500;2024-03-29T03:27:55;54621.13;;;-143.77;72.76
13836;BME280;6988;52.614;13.500;2024-03-29T03:32:47;54623.19;;;-143.77;72.69
13836;BME280;6988;52.614;13.500;2024-03-29T03:37:39;54645.75;;;-143.77;72.80
13836;BME280;6988;52.614;13.500;2024-03-29T03:42:32;54645.75;;;-143.77;72.79
13836;BME280;6988;52.614;13.500;2024-03-29T03:47:24;54635.50;;;-143.77;72.55
13836;BME280;6988;52.614;13.500;2024-03-29T03:52:16;54631.41;;;-143.77;72.68
13836;BME280;6988;52.614;13.500;2024-03-29T03:57:08;54662.19;;;-143.77;72.86
13836;BME280;6988;52.614;13.500;2024-03-29T04:02:01;54656.03;;;-143.77;73.23
13836;BME280;6988;52.614;13.500;2024-03-29T04:06:53;54664.22;;;-143.77;73.92
13836;BME280;6988;52.614;13.500;2024-03-29T04:11:45;54645.75;;;-143.77;73.32
13836;BME280;6988;52.614;13.500;2024-03-29T04:16:37;54668.34;;;-143.77;73.97
13836;BME280;6988;52.614;13.500;2024-03-29T04:21:30;54649.88;;;-143.77;73.75
13836;BME280;6988;52.614;13.500;2024-03-29T04:26:22;54674.50;;;-143.77;73.79
13836;BME280;6988;52.614;13.500;2024-03-29T04:31:14;54678.59;;;-143.77;73.30
13836;BME280;6988;52.614;13.500;2024-03-29T04:36:07;54660.13;;;-143.77;73.49
13836;BME280;6988;52.614;13.500;2024-03-29T04:41:00;54643.72;;;-143.77;72.92
13836;BME280;6988;52.614;13.500;2024-03-29T04:46:02;54647.81;;;-143.77;73.43
13836;BME280;6988;52.614;13.500;2024-03-29T04:50:55;54647.81;;;-143.77;73.43
13836;BME280;6988;52.614;13.500;2024-03-29T04:55:53;54643.72;;;-143.77;73.08
13836;BME280;6988;52.614;13.500;2024-03-29T05:00:48;54684.75;;;-143.77;73.78
13836;BME280;6988;52.614;13.500;2024-03-29T05:05:40;54674.50;;;-143.77;74.98
13836;BME280;6988;52.614;13.500;2024-03-29T05:10:32;54672.44;;;-143.77;75.85
13836;BME280;6988;52.614;13.500;2024-03-29T05:15:25;54701.16;;;-143.77;76.25
13836;BME280;6988;52.614;13.500;2024-03-29T05:20:18;54658.06;;;-143.77;75.96
13836;BME280;6988;52.614;13.500;2024-03-29T05:25:10;54686.81;;;-143.77;76.61
13836;BME280;6988;52.614;13.500;2024-03-29T05:30:03;54664.22;;;-143.77;75.65
13836;BME280;6988;52.614;13.500;2024-03-29T05:34:55;54651.91;;;-143.77;75.85
13836;BME280;6988;52.614;13.500;2024-03-29T05:39:48;54662.19;;;-143.77;75.48
13836;BME280;6988;52.614;13.500;2024-03-29T05:44:40;54680.66;;;-143.77;75.84
13836;BME280;6988;52.614;13.500;2024-03-29T05:49:32;54649.88;;;-143.77;75.31
13836;BME280;6988;52.614;13.500;2024-03-29T05:54:24;54684.75;;;-143.77;75.00
13836;BME280;6988;52.614;13.500;2024-03-29T05:59:17;54686.81;;;-143.77;75.53
13836;BME280;6988;52.614;13.500;2024-03-29T06:04:09;54635.50;;;-143.77;75.06
13836;BME280;6988;52.614;13.500;2024-03-29T06:09:06;54627.28;;;-143.77;74.93
13836;BME280;6988;52.614;13.500;2024-03-29T06:13:58;54656.03;;;-143.77;75.50
13836;BME280;6988;52.614;13.500;2024-03-29T06:19:08;54662.19;;;-143.77;75.43
13836;BME280;6988;52.614;13.500;2024-03-29T06:24:00;54664.22;;;-143.77;74.73
13836;BME280;6988;52.614;13.500;2024-03-29T06:28:52;54623.19;;;-143.77;74.21
13836;BME280;6988;52.614;13.500;2024-03-29T06:33:43;54627.28;;;-143.77;73.11
13836;BME280;6988;52.614;13.500;2024-03-29T06:38:36;54623.19;;;-143.77;72.94
13836;BME280;6988;52.614;13.500;2024-03-29T06:43:28;54584.19;;;-143.77;72.19
13836;BME280;6988;52.614;13.500;2024-03-29T06:48:20;54592.41;;;-143.77;71.38
13836;BME280;6988;52.614;13.500;2024-03-29T06:53:12;54619.09;;;-143.77;70.43
13836;BME280;6988;52.614;13.500;2024-03-29T06:58:05;54547.25;;;-143.77;68.72
13836;BME280;6988;52.614;13.500;2024-03-29T07:02:57;54520.59;;;-143.77;67.77
13836;BME280;6988;52.614;13.500;2024-03-29T07:07:49;54553.41;;;-143.77;67.11
13836;BME280;6988;52.614;13.500;2024-03-29T07:12:41;54534.94;;;-143.77;67.24
13836;BME280;6988;52.614;13.500;2024-03-29T07:17:34;54602.66;;;-143.77;67.01
13836;BME280;6988;52.614;13.500;2024-03-29T07:22:25;54524.69;;;-143.77;66.67
13836;BME280;6988;52.614;13.500;2024-03-29T07:27:18;54498.03;;;-143.77;64.85
13836;BME280;6988;52.614;13.500;2024-03-29T07:32:11;54495.97;;;-143.77;63.40
13836;BME280;6988;52.614;13.500;2024-03-29T07:37:04;54516.50;;;-143.77;62.74
13836;BME280;6988;52.614;13.500;2024-03-29T07:41:56;54495.97;;;-143.77;62.31
13836;BME280;6988;52.614;13.500;2024-03-29T07:46:47;54565.72;;;-143.77;62.42
13836;BME280;6988;52.614;13.500;2024-03-29T07:51:39;54465.19;;;-143.77;61.50
13836;BME280;6988;52.614;13.500;2024-03-29T07:56:32;54510.34;;;-143.77;61.52
13836;BME280;6988;52.614;13.500;2024-03-29T08:01:24;54504.19;;;-143.77;61.19
13836;BME280;6988;52.614;13.500;2024-03-29T08:06:16;54485.72;;;-143.77;59.79
13836;BME280;6988;52.614;13.500;2024-03-29T08:11:09;54481.59;;;-143.77;60.09
13836;BME280;6988;52.614;13.500;2024-03-29T08:16:04;54471.34;;;-143.77;59.47
13836;BME280;6988;52.614;13.500;2024-03-29T08:20:56;54467.25;;;-143.77;59.69
13836;BME280;6988;52.614;13.500;2024-03-29T08:25:49;54491.88;;;-143.77;59.56
13836;BME280;6988;52.614;13.500;2024-03-29T08:30:42;54481.59;;;-143.77;59.83
13836;BME280;6988;52.614;13.500;2024-03-29T08:35:35;54463.13;;;-143.77;59.31
13836;BME280;6988;52.614;13.500;2024-03-29T08:40:29;54459.03;;;-143.77;60.43
13836;BME280;6988;52.614;13.500;2024-03-29T08:45:22;54442.63;;;-143.77;60.99
13836;BME280;6988;52.614;13.500;2024-03-29T08:50:14;54454.94;;;-143.77;63.51
13836;BME280;6988;52.614;13.500;2024-03-29T08:55:08;54465.19;;;-143.77;65.32
13836;BME280;6988;52.614;13.500;2024-03-29T09:00:00;54450.81;;;-143.77;66.14
13836;BME280;6988;52.614;13.500;2024-03-29T09:04:53;54454.94;;;-143.77;66.27
13836;BME280;6988;52.614;13.500;2024-03-29T09:09:45;54424.16;;;-143.77;65.96
13836;BME280;6988;52.614;13.500;2024-03-29T09:14:38;54430.31;;;-143.77;65.73
13836;BME280;6988;52.614;13.500;2024-03-29T09:19:30;54438.50;;;-143.77;66.10
13836;BME280;6988;52.614;13.500;2024-03-29T09:24:22;54370.81;;;-143.77;65.59
13836;BME280;6988;52.614;13.500;2024-03-29T09:29:16;54372.84;;;-143.77;64.52
13836;BME280;6988;52.614;13.500;2024-03-29T09:34:10;54356.44;;;-143.77;62.28
13836;BME280;6988;52.614;13.500;2024-03-29T09:39:02;54438.50;;;-143.77;63.49
13836;BME280;6988;52.614;13.500;2024-03-29T09:43:59;54356.44;;;-143.77;62.11
13836;BME280;6988;52.614;13.500;2024-03-29T09:48:55;54348.22;;;-143.77;61.06
13836;BME280;6988;52.614;13.500;2024-03-29T09:53:49;54329.75;;;-143.77;60.00
13836;BME280;6988;52.614;13.500;2024-03-29T09:58:41;54352.34;;;-143.77;58.50
13836;BME280;6988;52.614;13.500;2024-03-29T10:03:40;54360.53;;;-143.77;57.37
13836;BME280;6988;52.614;13.500;2024-03-29T10:08:32;54350.28;;;-143.77;57.02
13836;BME280;6988;52.614;13.500;2024-03-29T10:13:26;54337.97;;;-143.77;53.65
13836;BME280;6988;52.614;13.500;2024-03-29T10:18:18;54356.44;;;-143.77;54.20
13836;BME280;6988;52.614;13.500;2024-03-29T10:23:10;54309.25;;;-143.77;52.90
13836;BME280;6988;52.614;13.500;2024-03-29T10:28:03;54323.59;;;-143.77;53.40
13836;BME280;6988;52.614;13.500;2024-03-29T10:32:56;54340.03;;;-143.77;53.56
13836;BME280;6988;52.614;13.500;2024-03-29T10:37:48;54344.13;;;-143.77;56.49
13836;BME280;6988;52.614;13.500;2024-03-29T10:42:41;54335.91;;;-143.77;56.06
13836;BME280;6988;52.614;13.500;2024-03-29T10:47:34;54340.03;;;-143.77;57.17
13836;BME280;6988;52.614;13.500;2024-03-29T10:52:27;54327.72;;;-143.77;58.68
13836;BME280;6988;52.614;13.500;2024-03-29T10:57:23;54333.88;;;-143.77;60.36
13836;BME280;6988;52.614;13.500;2024-03-29T11:02:29;54340.03;;;-143.77;60.39
13836;BME280;6988;52.614;13.500;2024-03-29T11:07:23;54368.75;;;-143.77;61.33
13836;BME280;6988;52.614;13.500;2024-03-29T11:12:18;54294.88;;;-143.77;62.18
13836;BME280;6988;52.614;13.500;2024-03-29T11:17:11;54175.88;;;-143.77;62.55
13836;BME280;6988;52.614;13.500;2024-03-29T11:22:05;54253.84;;;-143.77;60.14
13836;BME280;6988;52.614;13.500;2024-03-29T11:26:57;54286.69;;;-143.77;59.15
13836;BME280;6988;52.614;13.500;2024-03-29T11:31:57;54280.53;;;-143.77;58.69
13836;BME280;6988;52.614;13.500;2024-03-29T11:36:49;54280.53;;;-143.77;59.49
13836;BME280;6988;52.614;13.500;2024-03-29T11:41:47;54294.88;;;-143.77;60.21
13836;BME280;6988;52.614;13.500;2024-03-29T11:46:40;54274.38;;;-143.77;58.75
13836;BME280;6988;52.614;13.500;2024-03-29T11:51:33;54303.09;;;-143.77;58.78
13836;BME280;6988;52.614;13.500;2024-03-29T11:56:25;54374.91;;;-143.77;58.05
13836;BME280;6988;52.614;13.500;2024-03-29T12:01:18;54270.25;;;-143.77;58.84
13836;BME280;6988;52.614;13.500;2024-03-29T12:06:10;54280.53;;;-143.77;58.08
13836;BME280;6988;52.614;13.500;2024-03-29T12:11:04;54274.38;;;-143.77;59.11
13836;BME280;6988;52.614;13.500;2024-03-29T12:15:57;54284.63;;;-143.77;58.57
13836;BME280;6988;52.614;13.500;2024-03-29T12:20:50;54282.56;;;-143.77;58.91
13836;BME280;6988;52.614;13.500;2024-03-29T12:25:43;54276.41;;;-143.77;59.84
13836;BME280;6988;52.614;13.500;2024-03-29T12:30:37;54276.41;;;-143.77;60.27
13836;BME280;6988;52.614;13.500;2024-03-29T12:35:32;54260.00;;;-143.77;61.26
13836;BME280;6988;52.614;13.500;2024-03-29T12:40:25;54231.28;;;-143.77;59.93
13836;BME280;6988;52.614;13.500;2024-03-29T12:45:19;54229.22;;;-143.77;57.55
13836;BME280;6988;52.614;13.500;2024-03-29T12:50:25;54231.28;;;-143.77;56.40
13836;BME280;6988;52.614;13.500;2024-03-29T12:55:17;54167.66;;;-143.77;53.81
13836;BME280;6988;52.614;13.500;2024-03-29T13:00:10;54192.28;;;-143.77;51.72
13836;BME280;6988;52.614;13.500;2024-03-29T13:05:04;54177.94;;;-143.77;51.02
13836;BME280;6988;52.614;13.500;2024-03-29T13:09:57;54225.13;;;-143.77;48.82
13836;BME280;6988;52.614;13.500;2024-03-29T13:14:53;54210.75;;;-143.77;47.10
13836;BME280;6988;52.614;13.500;2024-03-29T13:19:45;54194.34;;;-143.77;46.54
13836;BME280;6988;52.614;13.500;2024-03-29T13:24:37;54184.09;;;-143.77;45.46
13836;BME280;6988;52.614;13.500;2024-03-29T13:29:30;54212.81;;;-143.77;47.27
13836;BME280;6988;52.614;13.500;2024-03-29T13:34:22;54237.44;;;-143.77;46.06
13836;BME280;6988;52.614;13.500;2024-03-29T13:39:14;54192.28;;;-143.77;46.07
13836;BME280;6988;52.614;13.500;2024-03-29T13:44:07;54188.19;;;-143.77;46.52
13836;BME280;6988;52.614;13.500;2024-03-29T13:49:00;54229.22;;;-143.77;44.85
13836;BME280;6988;52.614;13.500;2024-03-29T13:53:52;54204.59;;;-143.77;43.43
13836;BME280;6988;52.614;13.500;2024-03-29T13:58:44;54112.28;;;-143.77;43.05
13836;BME280;6988;52.614;13.500;2024-03-29T14:03:36;54175.88;;;-143.77;43.21
13836;BME280;6988;52.614;13.500;2024-03-29T14:08:29;54138.94;;;-143.77;41.63
13836;BME280;6988;52.614;13.500;2024-03-29T14:13:21;54136.91;;;-143.77;43.22
13836;BME280;6988;52.614;13.500;2024-03-29T14:18:12;54114.31;;;-143.77;41.74
13836;BME280;6988;52.614;13.500;2024-03-29T14:23:05;54116.38;;;-143.77;42.16
13836;BME280;6988;52.614;13.500;2024-03-29T14:28:02;54130.75;;;-143.77;42.56
13836;BME280;6988;52.614;13.500;2024-03-29T14:32:54;54087.66;;;-143.77;42.91
13836;BME280;6988;52.614;13.500;2024-03-29T14:37:46;54097.91;;;-143.77;42.22
13836;BME280;6988;52.614;13.500;2024-03-29T14:42:38;54065.09;;;-143.77;42.16
13836;BME280;6988;52.614;13.500;2024-03-29T14:47:31;54163.56;;;-143.77;42.29
13836;BME280;6988;52.614;13.500;2024-03-29T14:52:23;54159.47;;;-143.77;42.79
13836;BME280;6988;52.614;13.500;2024-03-29T14:57:15;54095.88;;;-143.77;43.23
13836;BME280;6988;52.614;13.500;2024-03-29T15:02:09;54143.06;;;-143.77;43.94
13836;BME280;6988;52.614;13.500;2024-03-29T15:07:03;54163.56;;;-143.77;44.30
13836;BME280;6988;52.614;13.500;2024-03-29T15:11:56;54122.53;;;-143.77;44.53
13836;BME280;6988;52.614;13.500;2024-03-29T15:16:47;54184.09;;;-143.77;44.34
13836;BME280;6988;52.614;13.500;2024-03-29T15:21:40;54147.16;;;-143.77;44.82
13836;BME280;6988;52.614;13.500;2024-03-29T15:26:35;54165.63;;;-143.77;45.25
13836;BME280;6988;52.614;13.500;2024-03-29T15:31:27;54122.53;;;-143.77;45.52
13836;BME280;6988;52.614;13.500;2024-03-29T15:36:19;54159.47;;;-143.77;45.64
13836;BME280;6988;52.614;13.500;2024-03-29T15:41:12;54163.56;;;-143.77;46.72
13836;BME280;6988;52.614;13.500;2024-03-29T15:46:05;54161.50;;;-143.77;46.86
13836;BME280;6988;52.614;13.500;2024-03-29T15:50:57;54157.41;;;-143.77;46.83
13836;BME280;6988;52.614;13.500;2024-03-29T15:55:49;54163.56;;;-143.77;47.68
13836;BME280;6988;52.614;13.500;2024-03-29T16:00:42;54188.19;;;-143.77;48.11
13836;BME280;6988;52.614;13.500;2024-03-29T16:05:35;54221.03;;;-143.77;48.63
13836;BME280;6988;52.614;13.500;2024-03-29T16:10:27;54192.28;;;-143.77;49.48
13836;BME280;6988;52.614;13.500;2024-03-29T16:15:19;54194.34;;;-143.77;49.64
13836;BME280;6988;52.614;13.500;2024-03-29T16:20:11;54192.28;;;-143.77;50.20
13836;BME280;6988;52.614;13.500;2024-03-29T16:25:05;54212.81;;;-143.77;50.81
13836;BME280;6988;52.614;13.500;2024-03-29T16:29:57;54247.69;;;-143.77;51.53
13836;BME280;6988;52.614;13.500;2024-03-29T16:34:49;54212.81;;;-143.77;52.53
13836;BME280;6988;52.614;13.500;2024-03-29T16:39:40;54249.75;;;-143.77;52.90
13836;BME280;6988;52.614;13.500;2024-03-29T16:44:34;54216.91;;;-143.77;53.18
13836;BME280;6988;52.614;13.500;2024-03-29T16:49:26;54200.50;;;-143.77;53.83
13836;BME280;6988;52.614;13.500;2024-03-29T16:54:18;54239.47;;;-143.77;54.24
13836;BME280;6988;52.614;13.500;2024-03-29T16:59:10;54208.72;;;-143.77;54.73
13836;BME280;6988;52.614;13.500;2024-03-29T17:04:03;54218.97;;;-143.77;55.49
13836;BME280;6988;52.614;13.500;2024-03-29T17:08:54;54239.47;;;-143.77;56.31
13836;BME280;6988;52.614;13.500;2024-03-29T17:13:46;54278.47;;;-143.77;56.82
13836;BME280;6988;52.614;13.500;2024-03-29T17:18:38;54233.31;;;-143.77;57.68
13836;BME280;6988;52.614;13.500;2024-03-29T17:23:31;54253.84;;;-143.77;57.95
13836;BME280;6988;52.614;13.500;2024-03-29T17:28:23;54249.75;;;-143.77;58.59
13836;BME280;6988;52.614;13.500;2024-03-29T17:33:15;54282.56;;;-143.77;59.09
13836;BME280;6988;52.614;13.500;2024-03-29T17:38:07;54323.59;;;-143.77;59.53
13836;BME280;6988;52.614;13.500;2024-03-29T17:43:00;54268.22;;;-143.77;60.04
13836;BME280;6988;52.614;13.500;2024-03-29T17:47:51;54278.47;;;-143.77;60.55
13836;BME280;6988;52.614;13.500;2024-03-29T17:52:43;54274.38;;;-143.77;60.96
13836;BME280;6988;52.614;13.500;2024-03-29T17:57:35;54292.84;;;-143.77;61.84
13836;BME280;6988;52.614;13.500;2024-03-29T18:02:28;54278.47;;;-143.77;62.46
13836;BME280;6988;52.614;13.500;2024-03-29T18:07:20;54307.19;;;-143.77;62.79
13836;BME280;6988;52.614;13.500;2024-03-29T18:12:12;54290.78;;;-143.77;63.07
13836;BME280;6988;52.614;13.500;2024-03-29T18:17:03;54249.75;;;-143.77;63.10
13836;BME280;6988;52.614;13.500;2024-03-29T18:21:56;54307.19;;;-143.77;63.33
13836;BME280;6988;52.614;13.500;2024-03-29T18:26:48;54301.03;;;-143.77;63.54
13836;BME280;6988;52.614;13.500;2024-03-29T18:31:40;54311.28;;;-143.77;63.91
13836;BME280;6988;52.614;13.500;2024-03-29T18:36:32;54301.03;;;-143.77;64.05
13836;BME280;6988;52.614;13.500;2024-03-29T18:41:25;54294.88;;;-143.77;64.23
13836;BME280;6988;52.614;13.500;2024-03-29T18:46:19;54292.84;;;-143.77;64.47
13836;BME280;6988;52.614;13.500;2024-03-29T18:51:11;54296.94;;;-143.77;64.67
13836;BME280;6988;52.614;13.500;2024-03-29T18:56:03;54290.78;;;-143.77;64.85
13836;BME280;6988;52.614;13.500;2024-03-29T19:00:56;54321.56;;;-143.77;64.87
13836;BME280;6988;52.614;13.500;2024-03-29T19:05:48;54274.38;;;-143.77;65.11
13836;BME280;6988;52.614;13.500;2024-03-29T19:10:41;54323.59;;;-143.77;65.56
13836;BME280;6988;52.614;13.500;2024-03-29T19:15:33;54315.41;;;-143.77;65.67
13836;BME280;6988;52.614;13.500;2024-03-29T19:20:26;54311.28;;;-143.77;65.75
13836;BME280;6988;52.614;13.500;2024-03-29T19:25:18;54315.41;;;-143.77;65.93
13836;BME280;6988;52.614;13.500;2024-03-29T19:30:11;54309.25;;;-143.77;66.27
13836;BME280;6988;52.614;13.500;2024-03-29T19:35:04;54325.66;;;-143.77;66.33
13836;BME280;6988;52.614;13.500;2024-03-29T19:39:57;54329.75;;;-143.77;66.11
13836;BME280;6988;52.614;13.500;2024-03-29T19:44:49;54321.56;;;-143.77;66.04
13836;BME280;6988;52.614;13.500;2024-03-29T19:49:40;54344.13;;;-143.77;65.83
13836;BME280;6988;52.614;13.500;2024-03-29T19:54:32;54307.19;;;-143.77;65.94
13836;BME280;6988;52.614;13.500;2024-03-29T19:59:25;54305.13;;;-143.77;66.08
13836;BME280;6988;52.614;13.500;2024-03-29T20:04:17;54333.88;;;-143.77;66.37
13836;BME280;6988;52.614;13.500;2024-03-29T20:09:08;54313.34;;;-143.77;66.55
13836;BME280;6988;52.614;13.500;2024-03-29T20:14:00;54387.22;;;-143.77;66.37
13836;BME280;6988;52.614;13.500;2024-03-29T20:18:53;54278.47;;;-143.77;66.54
13836;BME280;6988;52.614;13.500;2024-03-29T20:23:49;54323.59;;;-143.77;66.99
13836;BME280;6988;52.614;13.500;2024-03-29T20:28:41;54301.03;;;-143.77;67.73
13836;BME280;6988;52.614;13.500;2024-03-29T20:33:33;54335.91;;;-143.77;68.08
13836;BME280;6988;52.614;13.500;2024-03-29T20:38:26;54311.28;;;-143.77;68.31
13836;BME280;6988;52.614;13.500;2024-03-29T20:43:18;54303.09;;;-143.77;68.88
13836;BME280;6988;52.614;13.500;2024-03-29T20:48:10;54325.66;;;-143.77;69.25
13836;BME280;6988;52.614;13.500;2024-03-29T20:53:02;54323.59;;;-143.77;69.82
13836;BME280;6988;52.614;13.500;2024-03-29T20:57:55;54337.97;;;-143.77;70.06
13836;BME280;6988;52.614;13.500;2024-03-29T21:02:46;54340.03;;;-143.77;70.38
13836;BME280;6988;52.614;13.500;2024-03-29T21:07:56;54344.13;;;-143.77;70.70
13836;BME280;6988;52.614;13.500;2024-03-29T21:12:48;54397.47;;;-143.77;70.98
13836;BME280;6988;52.614;13.500;2024-03-29T21:17:41;54358.50;;;-143.77;71.16
13836;BME280;6988;52.614;13.500;2024-03-29T21:22:33;54374.91;;;-143.77;71.38
13836;BME280;6988;52.614;13.500;2024-03-29T21:27:27;54352.34;;;-143.77;71.91
13836;BME280;6988;52.614;13.500;2024-03-29T21:32:18;54364.66;;;-143.77;71.82
13836;BME280;6988;52.614;13.500;2024-03-29T21:37:12;54364.66;;;-143.77;72.21
13836;BME280;6988;52.614;13.500;2024-03-29T21:42:04;54385.16;;;-143.77;72.26
13836;BME280;6988;52.614;13.500;2024-03-29T21:46:57;54381.06;;;-143.77;72.56
13836;BME280;6988;52.614;13.500;2024-03-29T21:51:48;54381.06;;;-143.77;72.66
13836;BME280;6988;52.614;13.500;2024-03-29T21:56:41;54409.78;;;-143.77;72.55
13836;BME280;6988;52.614;13.500;2024-03-29T22:01:33;54385.16;;;-143.77;73.12
13836;BME280;6988;52.614;13.500;2024-03-29T22:06:27;54385.16;;;-143.77;74.16
13836;BME280;6988;52.614;13.500;2024-03-29T22:11:21;54383.13;;;-143.77;74.38
13836;BME280;6988;52.614;13.500;2024-03-29T22:16:14;54393.38;;;-143.77;76.17
13836;BME280;6988;52.614;13.500;2024-03-29T22:21:06;54413.88;;;-143.77;76.84
13836;BME280;6988;52.614;13.500;2024-03-29T22:25:57;54418.00;;;-143.77;76.53
13836;BME280;6988;52.614;13.500;2024-03-29T22:30:49;54426.19;;;-143.77;76.94
13836;BME280;6988;52.614;13.500;2024-03-29T22:35:42;54440.56;;;-143.77;76.41
13836;BME280;6988;52.614;13.500;2024-03-29T22:40:34;54438.50;;;-143.77;76.56
13836;BME280;6988;52.614;13.500;2024-03-29T22:45:26;54430.31;;;-143.77;76.62
13836;BME280;6988;52.614;13.500;2024-03-29T23:04:03;54434.41;;;-143.77;76.82
13836;BME280;6988;52.614;13.500;2024-03-29T23:08:55;54454.94;;;-143.77;77.20
13836;BME280;6988;52.614;13.500;2024-03-29T23:13:47;54442.63;;;-143.77;77.57
13836;BME280;6988;52.614;13.500;2024-03-29T23:18:39;54452.88;;;-143.77;78.16
13836;BME280;6988;52.614;13.500;2024-03-29T23:23:32;54442.63;;;-143.77;78.24
13836;BME280;6988;52.614;13.500;2024-03-29T23:28:24;54438.50;;;-143.77;78.28
13836;BME280;6988;52.614;13.500;2024-03-29T23:33:15;54512.38;;;-143.77;77.96
13836;BME280;6988;52.614;13.500;2024-03-29T23:38:07;54477.50;;;-143.77;78.28
13836;BME280;6988;52.614;13.500;2024-03-29T23:43:01;54471.34;;;-143.77;78.39
13836;BME280;6988;52.614;13.500;2024-03-29T23:47:53;54450.81;;;-143.77;78.54
13836;BME280;6988;52.614;13.500;2024-03-29T23:52:45;54467.25;;;-143.77;78.59
13836;BME280;6988;52.614;13.500;2024-03-29T23:57:37;54483.66;;;-143.77;79.34
